sensor_id;sensor_type;location;lat;lon;timestamp;pressure;altitude;pressure_sealevel;temperature;humidity
66164;BME280;52962;51.088;3.096;2024-03-07T00:01:15;102136.44;;;23.63;31.34
66164;BME280;52962;51.088;3.096;2024-03-07T00:03:44;102136.50;;;23.59;31.46
66164;BME280;52962;51.088;3.096;2024-03-07T00:06:12;102131.19;;;23.51;31.26
66164;BME280;52962;51.088;3.096;2024-03-07T00:08:41;102128.53;;;23.49;31.56
66164;BME280;52962;51.088;3.096;2024-03-07T00:11:10;102130.22;;;23.60;31.75
66164;BME280;52962;51.088;3.096;2024-03-07T00:13:38;102126.69;;;23.55;31.48
66164;BME280;52962;51.088;3.096;2024-03-07T00:16:06;102133.13;;;24.63;30.83
66164;BME280;52962;51.088;3.096;2024-03-07T00:18:35;102127.09;;;23.18;32.26
66164;BME280;52962;51.088;3.096;2024-03-07T00:21:04;102135.19;;;23.15;32.60
66164;BME280;52962;51.088;3.096;2024-03-07T00:23:32;102131.69;;;23.10;32.45
66164;BME280;52962;51.088;3.096;2024-03-07T00:26:02;102124.59;;;23.01;32.08
66164;BME280;52962;51.088;3.096;2024-03-07T00:28:30;102126.41;;;23.01;32.28
66164;BME280;52962;51.088;3.096;2024-03-07T00:31:02;102124.56;;;23.04;32.21
66164;BME280;52962;51.088;3.096;2024-03-07T00:33:30;102133.38;;;23.19;32.16
66164;BME280;52962;51.088;3.096;2024-03-07T00:36:19;102128.88;;;23.19;32.35
66164;BME280;52962;51.088;3.096;2024-03-07T00:38:48;102130.75;;;23.14;32.48
66164;BME280;52962;51.088;3.096;2024-03-07T00:41:18;102129.91;;;23.07;32.61
66164;BME280;52962;51.088;3.096;2024-03-07T00:43:47;102132.59;;;23.09;32.81
66164;BME280;52962;51.088;3.096;2024-03-07T00:46:15;102129.88;;;23.10;32.83
66164;BME280;52962;51.088;3.096;2024-03-07T00:48:43;102132.63;;;23.06;32.60
66164;BME280;52962;51.088;3.096;2024-03-07T00:51:13;102131.69;;;23.10;32.54
66164;BME280;52962;51.088;3.096;2024-03-07T00:53:42;102130.78;;;23.09;32.31
66164;BME280;52962;51.088;3.096;2024-03-07T00:56:11;102123.72;;;23.01;32.63
66164;BME280;52962;51.088;3.096;2024-03-07T00:58:40;102132.06;;;23.55;31.88
66164;BME280;52962;51.088;3.096;2024-03-07T01:01:08;102128.53;;;23.49;31.94
66164;BME280;52962;51.088;3.096;2024-03-07T01:03:38;102120.56;;;23.40;31.95
66164;BME280;52962;51.088;3.096;2024-03-07T01:06:06;102123.28;;;23.39;31.96
66164;BME280;52962;51.088;3.096;2024-03-07T01:08:36;102118.03;;;23.28;32.13
66164;BME280;52962;51.088;3.096;2024-03-07T01:11:05;102121.69;;;23.21;32.31
66164;BME280;52962;51.088;3.096;2024-03-07T01:13:36;102119.91;;;23.22;32.22
66164;BME280;52962;51.088;3.096;2024-03-07T01:16:06;102119.88;;;23.25;32.13
66164;BME280;52962;51.088;3.096;2024-03-07T01:18:34;102110.13;;;23.16;32.17
66164;BME280;52962;51.088;3.096;2024-03-07T01:21:04;102117.22;;;23.20;32.26
66164;BME280;52962;51.088;3.096;2024-03-07T01:23:33;102125.47;;;23.05;32.90
66164;BME280;52962;51.088;3.096;2024-03-07T01:26:01;102106.59;;;25.77;29.51
66164;BME280;52962;51.088;3.096;2024-03-07T01:28:29;102110.09;;;24.45;30.46
66164;BME280;52962;51.088;3.096;2024-03-07T01:30:57;102114.06;;;24.20;30.78
66164;BME280;52962;51.088;3.096;2024-03-07T01:33:27;102098.66;;;24.31;30.50
66164;BME280;52962;51.088;3.096;2024-03-07T01:35:55;102104.25;;;24.16;30.61
66164;BME280;52962;51.088;3.096;2024-03-07T01:38:23;102109.59;;;24.19;30.55
66164;BME280;52962;51.088;3.096;2024-03-07T01:40:52;102103.28;;;24.20;30.28
66164;BME280;52962;51.088;3.096;2024-03-07T01:43:21;102106.00;;;24.20;30.41
66164;BME280;52962;51.088;3.096;2024-03-07T01:45:54;102099.63;;;24.27;30.28
66164;BME280;52962;51.088;3.096;2024-03-07T01:48:28;102086.34;;;24.14;30.42
66164;BME280;52962;51.088;3.096;2024-03-07T01:50:56;102085.38;;;24.19;30.41
66164;BME280;52962;51.088;3.096;2024-03-07T01:53:25;102086.44;;;24.07;30.60
66164;BME280;52962;51.088;3.096;2024-03-07T01:55:53;102086.50;;;24.04;30.51
66164;BME280;52962;51.088;3.096;2024-03-07T01:58:22;102079.81;;;23.74;30.93
66164;BME280;52962;51.088;3.096;2024-03-07T02:00:51;102080.06;;;23.56;31.22
66164;BME280;52962;51.088;3.096;2024-03-07T02:03:20;102071.97;;;23.59;31.27
66164;BME280;52962;51.088;3.096;2024-03-07T02:05:50;102067.44;;;23.61;31.18
66164;BME280;52962;51.088;3.096;2024-03-07T02:08:19;102069.25;;;23.60;31.15
66164;BME280;52962;51.088;3.096;2024-03-07T02:10:47;102061.34;;;23.46;31.23
66164;BME280;52962;51.088;3.096;2024-03-07T02:13:15;102060.56;;;23.38;31.20
66164;BME280;52962;51.088;3.096;2024-03-07T02:15:44;102063.22;;;23.40;31.39
66164;BME280;52962;51.088;3.096;2024-03-07T02:18:12;102066.91;;;23.33;31.46
66164;BME280;52962;51.088;3.096;2024-03-07T02:20:43;102066.09;;;23.26;31.72
66164;BME280;52962;51.088;3.096;2024-03-07T02:23:12;102066.00;;;23.32;31.49
66164;BME280;52962;51.088;3.096;2024-03-07T02:25:41;102065.00;;;23.41;31.66
66164;BME280;52962;51.088;3.096;2024-03-07T02:28:10;102064.97;;;23.44;31.34
66164;BME280;52962;51.088;3.096;2024-03-07T02:30:39;102070.28;;;23.48;31.40
66164;BME280;52962;51.088;3.096;2024-03-07T02:33:07;102061.44;;;23.39;31.42
66164;BME280;52962;51.088;3.096;2024-03-07T02:35:37;102064.22;;;23.31;31.44
66164;BME280;52962;51.088;3.096;2024-03-07T02:38:06;102056.91;;;23.44;31.27
66164;BME280;52962;51.088;3.096;2024-03-07T02:40:35;102051.66;;;23.35;31.28
66164;BME280;52962;51.088;3.096;2024-03-07T02:43:03;102064.34;;;23.24;31.34
66164;BME280;52962;51.088;3.096;2024-03-07T02:45:33;102048.94;;;23.36;31.26
66164;BME280;52962;51.088;3.096;2024-03-07T02:48:02;102052.41;;;23.44;31.40
66164;BME280;52962;51.088;3.096;2024-03-07T02:50:31;102047.94;;;23.43;31.28
66164;BME280;52962;51.088;3.096;2024-03-07T02:52:59;102046.03;;;23.52;31.34
66164;BME280;52962;51.088;3.096;2024-03-07T02:55:29;102045.94;;;23.61;31.02
66164;BME280;52962;51.088;3.096;2024-03-07T02:57:57;102050.28;;;23.71;30.96
66164;BME280;52962;51.088;3.096;2024-03-07T03:00:25;102044.06;;;23.66;30.86
66164;BME280;52962;51.088;3.096;2024-03-07T03:02:56;102042.34;;;23.62;31.08
66164;BME280;52962;51.088;3.096;2024-03-07T03:05:25;102040.09;;;23.91;30.67
66164;BME280;52962;51.088;3.096;2024-03-07T03:07:53;102036.91;;;23.65;31.10
66164;BME280;52962;51.088;3.096;2024-03-07T03:10:21;102025.44;;;23.54;31.16
66164;BME280;52962;51.088;3.096;2024-03-07T03:12:55;102025.50;;;23.46;31.30
66164;BME280;52962;51.088;3.096;2024-03-07T03:15:26;102024.59;;;23.47;31.14
66164;BME280;52962;51.088;3.096;2024-03-07T03:17:56;102027.66;;;23.20;31.47
66164;BME280;52962;51.088;3.096;2024-03-07T03:20:27;102025.09;;;23.09;31.66
66164;BME280;52962;51.088;3.096;2024-03-07T03:23:01;102018.31;;;22.82;31.88
66164;BME280;52962;51.088;3.096;2024-03-07T03:25:33;102012.03;;;22.81;31.94
66164;BME280;52962;51.088;3.096;2024-03-07T03:28:04;102019.16;;;22.84;31.95
66164;BME280;52962;51.088;3.096;2024-03-07T03:30:33;102025.44;;;22.83;31.84
66164;BME280;52962;51.088;3.096;2024-03-07T03:33:01;102023.09;;;22.49;32.30
66164;BME280;52962;51.088;3.096;2024-03-07T03:35:29;102021.41;;;22.41;32.58
66164;BME280;52962;51.088;3.096;2024-03-07T03:37:57;102022.28;;;22.43;32.38
66164;BME280;52962;51.088;3.096;2024-03-07T03:40:25;102013.31;;;22.44;32.22
66164;BME280;52962;51.088;3.096;2024-03-07T03:42:54;102013.44;;;23.10;31.53
66164;BME280;52962;51.088;3.096;2024-03-07T03:45:26;102010.94;;;22.95;31.69
66164;BME280;52962;51.088;3.096;2024-03-07T03:47:55;102008.38;;;22.87;32.12
66164;BME280;52962;51.088;3.096;2024-03-07T03:50:23;102006.66;;;22.81;32.13
66164;BME280;52962;51.088;3.096;2024-03-07T03:52:52;102004.91;;;22.79;31.94
66164;BME280;52962;51.088;3.096;2024-03-07T03:55:21;102009.34;;;22.78;31.96
66164;BME280;52962;51.088;3.096;2024-03-07T03:57:50;102004.94;;;22.74;32.17
66164;BME280;52962;51.088;3.096;2024-03-07T04:00:18;102002.22;;;22.76;31.95
66164;BME280;52962;51.088;3.096;2024-03-07T04:02:51;101995.06;;;22.76;32.05
66164;BME280;52962;51.088;3.096;2024-03-07T04:05:20;101998.66;;;22.75;31.86
66164;BME280;52962;51.088;3.096;2024-03-07T04:07:48;101995.91;;;22.83;31.98
66164;BME280;52962;51.088;3.096;2024-03-07T04:10:17;102005.97;;;22.60;32.04
66164;BME280;52962;51.088;3.096;2024-03-07T04:12:45;102001.53;;;22.57;32.26
66164;BME280;52962;51.088;3.096;2024-03-07T04:15:15;101997.09;;;22.53;32.22
66164;BME280;52962;51.088;3.096;2024-03-07T04:17:46;101995.38;;;22.49;32.28
66164;BME280;52962;51.088;3.096;2024-03-07T04:20:17;101997.00;;;22.62;31.91
66164;BME280;52962;51.088;3.096;2024-03-07T04:22:46;101989.78;;;22.67;32.11
66164;BME280;52962;51.088;3.096;2024-03-07T04:25:16;101993.38;;;22.66;31.88
66164;BME280;52962;51.088;3.096;2024-03-07T04:27:44;101999.56;;;22.73;32.09
66164;BME280;52962;51.088;3.096;2024-03-07T04:30:13;102002.31;;;22.68;32.19
66164;BME280;52962;51.088;3.096;2024-03-07T04:32:44;101991.69;;;22.59;32.39
66164;BME280;52962;51.088;3.096;2024-03-07T04:35:12;101990.88;;;22.49;32.18
66164;BME280;52962;51.088;3.096;2024-03-07T04:37:46;102000.16;;;17.88;38.56
66164;BME280;52962;51.088;3.096;2024-03-07T04:40:14;102008.31;;;16.51;42.12
66164;BME280;52962;51.088;3.096;2024-03-07T04:42:47;102015.66;;;16.11;43.85
66164;BME280;52962;51.088;3.096;2024-03-07T04:45:17;101998.25;;;20.95;36.85
66164;BME280;52962;51.088;3.096;2024-03-07T04:47:46;101982.47;;;24.97;31.12
66164;BME280;52962;51.088;3.096;2024-03-07T04:50:16;102010.47;;;17.52;40.63
66164;BME280;52962;51.088;3.096;2024-03-07T04:52:47;102013.34;;;15.80;45.79
66164;BME280;52962;51.088;3.096;2024-03-07T04:55:17;102000.75;;;17.57;42.64
66164;BME280;52962;51.088;3.096;2024-03-07T04:57:45;101995.69;;;17.86;42.15
66164;BME280;52962;51.088;3.096;2024-03-07T05:00:15;101993.72;;;17.65;42.57
66164;BME280;52962;51.088;3.096;2024-03-07T05:02:48;101988.72;;;22.85;36.34
66164;BME280;52962;51.088;3.096;2024-03-07T05:05:17;101983.03;;;26.24;29.04
66164;BME280;52962;51.088;3.096;2024-03-07T05:07:52;101977.16;;;24.94;30.67
66164;BME280;52962;51.088;3.096;2024-03-07T05:10:20;101988.97;;;23.31;32.01
66164;BME280;52962;51.088;3.096;2024-03-07T05:12:49;101981.25;;;25.52;29.50
66164;BME280;52962;51.088;3.096;2024-03-07T05:15:18;101978.03;;;24.00;30.50
66164;BME280;52962;51.088;3.096;2024-03-07T05:17:46;101989.31;;;23.71;30.97
66164;BME280;52962;51.088;3.096;2024-03-07T05:20:14;101990.22;;;23.04;31.79
66164;BME280;52962;51.088;3.096;2024-03-07T05:22:43;101983.97;;;23.04;31.79
66164;BME280;52962;51.088;3.096;2024-03-07T05:25:19;101975.31;;;25.36;28.84
66164;BME280;52962;51.088;3.096;2024-03-07T05:27:48;101988.06;;;23.32;31.30
66164;BME280;52962;51.088;3.096;2024-03-07T05:30:17;101981.38;;;22.96;31.96
66164;BME280;52962;51.088;3.096;2024-03-07T05:32:45;101983.22;;;22.93;32.08
66164;BME280;52962;51.088;3.096;2024-03-07T05:35:15;101980.34;;;23.06;31.85
66164;BME280;52962;51.088;3.096;2024-03-07T05:37:47;101970.97;;;24.44;30.36
66164;BME280;52962;51.088;3.096;2024-03-07T05:40:19;101967.78;;;25.12;29.28
66164;BME280;52962;51.088;3.096;2024-03-07T05:42:47;101959.00;;;25.02;29.19
66164;BME280;52962;51.088;3.096;2024-03-07T05:45:15;101964.63;;;24.48;29.98
66164;BME280;52962;51.088;3.096;2024-03-07T05:47:45;101970.06;;;23.37;30.86
66164;BME280;52962;51.088;3.096;2024-03-07T05:50:14;101971.16;;;23.24;31.18
66164;BME280;52962;51.088;3.096;2024-03-07T05:52:43;101970.50;;;23.05;31.63
66164;BME280;52962;51.088;3.096;2024-03-07T05:55:11;101963.31;;;23.09;31.19
66164;BME280;52962;51.088;3.096;2024-03-07T05:57:41;101973.09;;;23.13;31.22
66164;BME280;52962;51.088;3.096;2024-03-07T06:00:11;101971.53;;;22.97;31.64
66164;BME280;52962;51.088;3.096;2024-03-07T06:02:42;101973.41;;;22.89;31.73
66164;BME280;52962;51.088;3.096;2024-03-07T06:05:11;101977.00;;;22.89;31.58
66164;BME280;52962;51.088;3.096;2024-03-07T06:07:43;101985.06;;;22.89;31.90
66164;BME280;52962;51.088;3.096;2024-03-07T06:10:13;101981.53;;;22.87;31.98
66164;BME280;52962;51.088;3.096;2024-03-07T06:12:45;101965.44;;;25.36;29.13
66164;BME280;52962;51.088;3.096;2024-03-07T06:15:16;101960.91;;;25.37;28.77
66164;BME280;52962;51.088;3.096;2024-03-07T06:17:44;101976.75;;;23.70;30.43
66164;BME280;52962;51.088;3.096;2024-03-07T06:20:14;101963.75;;;23.40;31.02
66164;BME280;52962;51.088;3.096;2024-03-07T06:22:49;101977.72;;;23.02;31.70
66164;BME280;52962;51.088;3.096;2024-03-07T06:25:18;101979.06;;;22.66;32.39
66164;BME280;52962;51.088;3.096;2024-03-07T06:27:51;101982.94;;;22.40;32.42
66164;BME280;52962;51.088;3.096;2024-03-07T06:30:19;101979.56;;;22.18;32.81
66164;BME280;52962;51.088;3.096;2024-03-07T06:32:47;101987.16;;;21.68;33.67
66164;BME280;52962;51.088;3.096;2024-03-07T06:35:16;101988.31;;;21.24;34.30
66164;BME280;52962;51.088;3.096;2024-03-07T06:37:46;101982.16;;;20.98;35.01
66164;BME280;52962;51.088;3.096;2024-03-07T06:40:14;101982.22;;;20.82;35.19
66164;BME280;52962;51.088;3.096;2024-03-07T06:42:48;101981.16;;;23.13;31.90
66164;BME280;52962;51.088;3.096;2024-03-07T06:45:19;101976.16;;;24.04;31.09
66164;BME280;52962;51.088;3.096;2024-03-07T06:47:47;101969.88;;;23.51;32.26
66164;BME280;52962;51.088;3.096;2024-03-07T06:50:16;101967.41;;;24.88;30.04
66164;BME280;52962;51.088;3.096;2024-03-07T06:52:59;101969.75;;;23.60;31.30
66164;BME280;52962;51.088;3.096;2024-03-07T06:55:30;101971.69;;;22.88;32.61
66164;BME280;52962;51.088;3.096;2024-03-07T06:58:00;101976.22;;;22.81;32.56
66164;BME280;52962;51.088;3.096;2024-03-07T07:00:32;101972.44;;;22.96;32.49
66164;BME280;52962;51.088;3.096;2024-03-07T07:03:04;101979.72;;;23.54;32.14
66164;BME280;52962;51.088;3.096;2024-03-07T07:05:34;101978.19;;;23.34;32.03
66164;BME280;52962;51.088;3.096;2024-03-07T07:08:03;101978.59;;;23.04;32.62
66164;BME280;52962;51.088;3.096;2024-03-07T07:10:34;101984.84;;;23.06;32.64
66164;BME280;52962;51.088;3.096;2024-03-07T07:13:03;101976.66;;;23.15;32.77
66164;BME280;52962;51.088;3.096;2024-03-07T07:15:33;101983.81;;;23.16;32.76
66164;BME280;52962;51.088;3.096;2024-03-07T07:18:01;101976.44;;;23.30;32.52
66164;BME280;52962;51.088;3.096;2024-03-07T07:20:30;101972.00;;;23.28;32.80
66164;BME280;52962;51.088;3.096;2024-03-07T07:23:01;101975.88;;;23.70;31.89
66164;BME280;52962;51.088;3.096;2024-03-07T07:25:30;101977.19;;;23.40;32.60
66164;BME280;52962;51.088;3.096;2024-03-07T07:28:00;101978.97;;;23.41;32.70
66164;BME280;52962;51.088;3.096;2024-03-07T07:30:27;101975.88;;;23.70;32.33
66164;BME280;52962;51.088;3.096;2024-03-07T07:32:57;101975.94;;;23.65;32.67
66164;BME280;52962;51.088;3.096;2024-03-07T07:35:25;101972.13;;;23.80;32.57
66164;BME280;52962;51.088;3.096;2024-03-07T07:37:53;101974.75;;;23.83;32.36
66164;BME280;52962;51.088;3.096;2024-03-07T07:40:24;101975.69;;;23.82;32.52
66164;BME280;52962;51.088;3.096;2024-03-07T07:42:55;101963.00;;;23.90;32.65
66164;BME280;52962;51.088;3.096;2024-03-07T07:45:24;101973.28;;;24.14;32.33
66164;BME280;52962;51.088;3.096;2024-03-07T07:47:52;101962.63;;;24.08;32.38
66164;BME280;52962;51.088;3.096;2024-03-07T07:50:23;101969.03;;;24.01;32.65
66164;BME280;52962;51.088;3.096;2024-03-07T07:52:53;101963.56;;;24.06;32.56
66164;BME280;52962;51.088;3.096;2024-03-07T07:55:24;101968.94;;;24.07;32.58
66164;BME280;52962;51.088;3.096;2024-03-07T07:57:53;101965.94;;;24.24;32.47
66164;BME280;52962;51.088;3.096;2024-03-07T08:00:23;101960.50;;;24.29;32.49
66164;BME280;52962;51.088;3.096;2024-03-07T08:02:52;101964.97;;;24.30;32.43
66164;BME280;52962;51.088;3.096;2024-03-07T08:05:24;101954.84;;;24.42;32.38
66164;BME280;52962;51.088;3.096;2024-03-07T08:07:55;101958.66;;;24.31;32.52
66164;BME280;52962;51.088;3.096;2024-03-07T08:10:26;101951.34;;;24.39;32.63
66164;BME280;52962;51.088;3.096;2024-03-07T08:12:56;101951.25;;;24.43;32.64
66164;BME280;52962;51.088;3.096;2024-03-07T08:15:25;101953.97;;;24.42;32.76
66164;BME280;52962;51.088;3.096;2024-03-07T08:17:55;101953.75;;;24.53;32.69
66164;BME280;52962;51.088;3.096;2024-03-07T08:20:26;101951.84;;;24.59;32.71
66164;BME280;52962;51.088;3.096;2024-03-07T08:22:56;101945.16;;;24.78;32.71
66164;BME280;52962;51.088;3.096;2024-03-07T08:25:27;101940.69;;;24.77;32.64
66164;BME280;52962;51.088;3.096;2024-03-07T08:27:57;101943.19;;;24.87;32.62
66164;BME280;52962;51.088;3.096;2024-03-07T08:30:26;101944.09;;;24.86;32.65
66164;BME280;52962;51.088;3.096;2024-03-07T08:32:56;101941.13;;;24.98;32.68
66164;BME280;52962;51.088;3.096;2024-03-07T08:35:27;101935.63;;;25.04;32.55
66164;BME280;52962;51.088;3.096;2024-03-07T08:37:56;101934.47;;;25.14;32.51
66164;BME280;52962;51.088;3.096;2024-03-07T08:40:26;101934.13;;;25.68;31.49
66164;BME280;52962;51.088;3.096;2024-03-07T08:42:58;101936.22;;;25.17;32.52
66164;BME280;52962;51.088;3.096;2024-03-07T08:45:28;101934.22;;;25.26;32.63
66164;BME280;52962;51.088;3.096;2024-03-07T08:48:02;101938.66;;;25.27;32.58
66164;BME280;52962;51.088;3.096;2024-03-07T08:50:34;101926.47;;;25.50;32.41
66164;BME280;52962;51.088;3.096;2024-03-07T08:53:05;101931.00;;;25.48;32.34
66164;BME280;52962;51.088;3.096;2024-03-07T08:55:33;101926.19;;;25.60;32.39
66164;BME280;52962;51.088;3.096;2024-03-07T08:58:03;101933.44;;;25.95;31.72
66164;BME280;52962;51.088;3.096;2024-03-07T09:00:34;101931.00;;;25.85;32.26
66164;BME280;52962;51.088;3.096;2024-03-07T09:03:09;101921.25;;;25.79;32.33
66164;BME280;52962;51.088;3.096;2024-03-07T09:05:41;101941.72;;;25.88;32.42
66164;BME280;52962;51.088;3.096;2024-03-07T09:08:09;101933.22;;;26.01;31.93
66164;BME280;52962;51.088;3.096;2024-03-07T09:10:38;101927.13;;;25.95;32.35
66164;BME280;52962;51.088;3.096;2024-03-07T09:13:09;101921.50;;;26.02;32.26
66164;BME280;52962;51.088;3.096;2024-03-07T09:15:38;101921.22;;;26.13;32.11
66164;BME280;52962;51.088;3.096;2024-03-07T09:18:07;101923.59;;;26.25;32.13
66164;BME280;52962;51.088;3.096;2024-03-07T09:20:36;101921.53;;;26.35;32.00
66164;BME280;52962;51.088;3.096;2024-03-07T09:23:08;101914.13;;;26.43;32.00
66164;BME280;52962;51.088;3.096;2024-03-07T09:25:36;101914.13;;;26.43;32.07
66164;BME280;52962;51.088;3.096;2024-03-07T09:28:06;101913.94;;;26.49;32.14
66164;BME280;52962;51.088;3.096;2024-03-07T09:30:34;101911.88;;;26.88;31.37
66164;BME280;52962;51.088;3.096;2024-03-07T09:33:07;101917.31;;;27.16;30.94
66164;BME280;52962;51.088;3.096;2024-03-07T09:35:39;101910.19;;;26.55;31.56
66164;BME280;52962;51.088;3.096;2024-03-07T09:38:08;101911.53;;;26.69;31.88
66164;BME280;52962;51.088;3.096;2024-03-07T09:40:38;101917.84;;;26.70;31.53
66164;BME280;52962;51.088;3.096;2024-03-07T09:43:07;101913.00;;;26.81;31.76
66164;BME280;52962;51.088;3.096;2024-03-07T09:45:38;101914.00;;;27.07;31.28
66164;BME280;52962;51.088;3.096;2024-03-07T09:48:13;101902.16;;;27.39;31.09
66164;BME280;52962;51.088;3.096;2024-03-07T09:50:43;101900.09;;;27.47;30.89
66164;BME280;52962;51.088;3.096;2024-03-07T09:53:15;101892.38;;;28.62;30.92
66164;BME280;52962;51.088;3.096;2024-03-07T09:55:43;101900.81;;;27.52;30.70
66164;BME280;52962;51.088;3.096;2024-03-07T09:58:12;101897.47;;;27.72;30.85
66164;BME280;52962;51.088;3.096;2024-03-07T10:00:47;101897.84;;;27.61;30.34
66164;BME280;52962;51.088;3.096;2024-03-07T10:03:20;101895.22;;;27.58;30.30
66164;BME280;52962;51.088;3.096;2024-03-07T10:05:50;101890.47;;;27.66;30.62
66164;BME280;52962;51.088;3.096;2024-03-07T10:08:21;101899.63;;;27.34;30.79
66164;BME280;52962;51.088;3.096;2024-03-07T10:10:51;101897.06;;;27.29;30.48
66164;BME280;52962;51.088;3.096;2024-03-07T10:13:21;101882.53;;;27.60;30.75
66164;BME280;52962;51.088;3.096;2024-03-07T10:15:49;101893.28;;;27.63;31.29
66164;BME280;52962;51.088;3.096;2024-03-07T10:18:19;101886.97;;;27.62;31.51
66164;BME280;52962;51.088;3.096;2024-03-07T10:20:49;101887.81;;;27.36;31.32
66164;BME280;52962;51.088;3.096;2024-03-07T10:23:19;101874.19;;;27.40;30.94
66164;BME280;52962;51.088;3.096;2024-03-07T10:25:49;101877.78;;;27.12;31.13
66164;BME280;52962;51.088;3.096;2024-03-07T10:28:18;101880.00;;;27.54;30.11
66164;BME280;52962;51.088;3.096;2024-03-07T10:30:47;101867.59;;;27.75;29.93
66164;BME280;52962;51.088;3.096;2024-03-07T10:33:17;101871.09;;;27.78;30.35
66164;BME280;52962;51.088;3.096;2024-03-07T10:35:47;101853.47;;;27.91;29.51
66164;BME280;52962;51.088;3.096;2024-03-07T10:38:17;101865.31;;;28.12;30.28
66164;BME280;52962;51.088;3.096;2024-03-07T10:40:48;101865.69;;;28.28;29.73
66164;BME280;52962;51.088;3.096;2024-03-07T10:43:21;101861.97;;;28.30;30.74
66164;BME280;52962;51.088;3.096;2024-03-07T10:45:50;101862.88;;;28.54;29.75
66164;BME280;52962;51.088;3.096;2024-03-07T10:48:20;101857.44;;;28.54;28.88
66164;BME280;52962;51.088;3.096;2024-03-07T10:50:57;101856.28;;;28.85;29.76
66164;BME280;52962;51.088;3.096;2024-03-07T10:53:32;101854.09;;;28.94;28.97
66164;BME280;52962;51.088;3.096;2024-03-07T10:56:18;101856.28;;;28.85;28.54
66164;BME280;52962;51.088;3.096;2024-03-07T10:58:55;101854.53;;;28.11;30.12
66164;BME280;52962;51.088;3.096;2024-03-07T11:01:30;101848.00;;;29.32;29.55
66164;BME280;52962;51.088;3.096;2024-03-07T11:04:01;101860.00;;;29.48;29.96
66164;BME280;52962;51.088;3.096;2024-03-07T11:06:33;101854.25;;;29.34;29.62
66164;BME280;52962;51.088;3.096;2024-03-07T11:09:06;101851.66;;;29.30;29.17
66164;BME280;52962;51.088;3.096;2024-03-07T11:11:40;101848.31;;;29.24;28.15
66164;BME280;52962;51.088;3.096;2024-03-07T11:14:11;101839.31;;;29.23;27.98
66164;BME280;52962;51.088;3.096;2024-03-07T11:16:42;101841.69;;;29.11;28.55
66164;BME280;52962;51.088;3.096;2024-03-07T11:19:18;101831.19;;;29.45;27.98
66164;BME280;52962;51.088;3.096;2024-03-07T11:21:48;101834.13;;;29.61;26.98
66164;BME280;52962;51.088;3.096;2024-03-07T11:24:26;101836.59;;;29.45;27.89
66164;BME280;52962;51.088;3.096;2024-03-07T11:26:58;101827.88;;;29.59;28.98
66164;BME280;52962;51.088;3.096;2024-03-07T11:29:40;101829.84;;;29.96;27.15
66164;BME280;52962;51.088;3.096;2024-03-07T11:32:13;101825.94;;;30.03;26.46
66164;BME280;52962;51.088;3.096;2024-03-07T11:34:42;101825.09;;;30.40;27.41
66164;BME280;52962;51.088;3.096;2024-03-07T11:37:17;101820.41;;;29.84;27.47
66164;BME280;52962;51.088;3.096;2024-03-07T11:39:50;101812.81;;;29.92;28.29
66164;BME280;52962;51.088;3.096;2024-03-07T11:42:25;101816.16;;;30.95;29.51
66164;BME280;52962;51.088;3.096;2024-03-07T11:44:54;101806.72;;;30.26;26.76
66164;BME280;52962;51.088;3.096;2024-03-07T11:47:24;101803.97;;;30.66;27.83
66164;BME280;52962;51.088;3.096;2024-03-07T11:49:56;101797.50;;;30.87;27.21
66164;BME280;52962;51.088;3.096;2024-03-07T11:52:26;101798.25;;;30.72;29.55
66164;BME280;52962;51.088;3.096;2024-03-07T11:54:55;101783.50;;;30.95;29.29
66164;BME280;52962;51.088;3.096;2024-03-07T11:57:33;101779.00;;;30.57;29.96
66164;BME280;52962;51.088;3.096;2024-03-07T12:00:03;101773.47;;;30.59;30.90
66164;BME280;52962;51.088;3.096;2024-03-07T12:02:38;101771.56;;;30.61;28.95
66164;BME280;52962;51.088;3.096;2024-03-07T12:05:08;101762.44;;;29.65;29.26
66164;BME280;52962;51.088;3.096;2024-03-07T12:07:36;101761.75;;;29.80;29.28
66164;BME280;52962;51.088;3.096;2024-03-07T12:10:06;101744.25;;;31.00;29.83
66164;BME280;52962;51.088;3.096;2024-03-07T12:12:36;101747.34;;;31.96;27.17
66164;BME280;52962;51.088;3.096;2024-03-07T12:15:07;101737.91;;;32.35;28.56
66164;BME280;52962;51.088;3.096;2024-03-07T12:17:47;101740.28;;;32.25;25.17
66164;BME280;52962;51.088;3.096;2024-03-07T12:20:17;101741.25;;;32.56;25.69
66164;BME280;52962;51.088;3.096;2024-03-07T12:22:59;101740.47;;;33.01;27.68
66164;BME280;52962;51.088;3.096;2024-03-07T12:25:30;101729.69;;;31.70;25.82
66164;BME280;52962;51.088;3.096;2024-03-07T12:28:02;101727.72;;;31.90;28.86
66164;BME280;52962;51.088;3.096;2024-03-07T12:30:34;101717.59;;;31.07;25.71
66164;BME280;52962;51.088;3.096;2024-03-07T12:33:06;101716.38;;;31.81;28.41
66164;BME280;52962;51.088;3.096;2024-03-07T12:35:36;101709.00;;;31.83;26.54
66164;BME280;52962;51.088;3.096;2024-03-07T12:38:04;101710.47;;;31.56;26.81
66164;BME280;52962;51.088;3.096;2024-03-07T12:40:32;101700.25;;;31.09;27.71
66164;BME280;52962;51.088;3.096;2024-03-07T12:43:14;101694.56;;;30.97;28.54
66164;BME280;52962;51.088;3.096;2024-03-07T12:45:45;101691.25;;;31.42;29.21
66164;BME280;52962;51.088;3.096;2024-03-07T12:48:15;101691.03;;;31.12;30.12
66164;BME280;52962;51.088;3.096;2024-03-07T12:50:45;101700.72;;;26.14;35.05
66164;BME280;52962;51.088;3.096;2024-03-07T12:53:13;101683.03;;;32.25;29.35
66164;BME280;52962;51.088;3.096;2024-03-07T12:55:41;101679.34;;;32.26;26.89
66164;BME280;52962;51.088;3.096;2024-03-07T12:58:10;101680.59;;;32.36;28.22
66164;BME280;52962;51.088;3.096;2024-03-07T13:00:40;101666.88;;;32.22;25.88
66164;BME280;52962;51.088;3.096;2024-03-07T13:03:10;101669.16;;;32.30;26.12
66164;BME280;52962;51.088;3.096;2024-03-07T13:05:41;101669.16;;;32.30;26.97